Time;durP1;ratioP1;P1;durP2;ratioP2;P2;SDS_P1;SDS_P2;PMS_P1;PMS_P2;Temp;Humidity;BMP_temperature;BMP_pressure;BME280_temperature;BME280_humidity;BME280_pressure;Samples;Min_cycle;Max_cycle;Signal;HPM_P1;HPM_P2
2021/03/17 00:01:27;;;;;;;3.50;3.23;;;6.00;41.00;;;;;;10429903;28;20239;-71
2021/03/17 00:06:29;;;;;;;3.30;3.00;;;6.00;41.60;;;;;;10427394;28;20235;-72
2021/03/17 00:11:31;;;;;;;3.13;2.93;;;5.90;41.20;;;;;;10434725;28;20231;-71
2021/03/17 00:16:36;;;;;;;2.90;2.70;;;6.00;41.20;;;;;;10422263;28;20314;-70
2021/03/17 00:21:38;;;;;;;3.17;2.63;;;6.00;41.40;;;;;;10431900;28;20232;-70
2021/03/17 00:26:40;;;;;;;2.70;2.50;;;6.00;41.30;;;;;;10440309;28;20233;-71
2021/03/17 00:31:43;;;;;;;2.63;2.43;;;6.00;41.40;;;;;;10430355;28;20239;-70
2021/03/17 00:36:46;;;;;;;2.70;2.50;;;5.90;41.40;;;;;;10439209;28;20225;-70
2021/03/17 00:41:49;;;;;;;3.40;2.83;;;6.00;41.40;;;;;;10437646;28;20224;-70
2021/03/17 00:46:58;;;;;;;3.57;3.10;;;6.00;41.30;;;;;;10440418;28;20225;-70
2021/03/17 00:52:01;;;;;;;3.40;3.10;;;6.00;41.60;;;;;;10437330;28;20295;-70
2021/03/17 00:57:03;;;;;;;3.30;2.70;;;6.00;41.50;;;;;;10438834;28;20257;-70
2021/03/17 01:02:06;;;;;;;3.00;2.70;;;6.00;41.30;;;;;;10434698;28;20221;-70
2021/03/17 01:07:12;;;;;;;3.00;2.50;;;6.10;41.60;;;;;;10436241;28;20225;-70
2021/03/17 01:12:15;;;;;;;2.60;2.40;;;6.10;41.50;;;;;;10440342;28;20605;-70
2021/03/17 01:17:18;;;;;;;2.67;2.47;;;6.20;41.60;;;;;;10443202;28;20282;-70
2021/03/17 01:22:21;;;;;;;2.80;2.60;;;6.20;41.50;;;;;;10443274;28;20723;-70
2021/03/17 01:27:23;;;;;;;2.80;2.60;;;6.30;41.50;;;;;;10444854;28;20233;-70
2021/03/17 01:32:26;;;;;;;2.80;2.60;;;6.30;41.30;;;;;;10438522;28;20331;-70
2021/03/17 01:37:28;;;;;;;3.10;2.70;;;6.30;41.30;;;;;;10442346;28;20235;-70
2021/03/17 01:42:31;;;;;;;3.30;3.00;;;6.30;41.20;;;;;;10446058;28;20229;-70
2021/03/17 01:47:40;;;;;;;3.07;2.87;;;6.30;41.30;;;;;;10443826;28;20304;-70
2021/03/17 01:52:43;;;;;;;2.90;2.70;;;6.30;41.60;;;;;;10445706;28;20706;-70
2021/03/17 01:57:46;;;;;;;2.70;2.43;;;6.30;41.30;;;;;;10443928;28;20222;-70
2021/03/17 02:02:52;;;;;;;2.00;1.90;;;6.30;41.20;;;;;;10445487;28;20316;-70
2021/03/17 02:07:55;;;;;;;2.20;2.10;;;6.30;41.30;;;;;;10445865;28;20718;-70
2021/03/17 02:13:15;;;;;;;1.63;1.53;;;6.30;41.00;;;;;;10444937;28;20721;-70
2021/03/17 02:18:29;;;;;;;1.70;1.60;;;6.20;41.60;;;;;;10443099;28;20233;-70
2021/03/17 02:23:38;;;;;;;2.47;2.27;;;6.10;41.70;;;;;;10440077;28;20696;-70
2021/03/17 02:29:02;;;;;;;2.10;1.90;;;6.00;41.50;;;;;;10441029;28;20599;-71
2021/03/17 02:34:09;;;;;;;2.63;2.40;;;5.90;42.20;;;;;;10443881;28;20241;-71
2021/03/17 02:39:16;;;;;;;2.77;2.50;;;5.90;42.00;;;;;;10446265;28;20233;-70
2021/03/17 02:44:20;;;;;;;3.23;2.93;;;5.90;41.80;;;;;;10446744;28;20225;-70
2021/03/17 02:49:26;;;;;;;2.80;2.60;;;5.90;41.50;;;;;;10438312;28;20229;-70
2021/03/17 02:54:29;;;;;;;3.03;2.83;;;5.90;41.70;;;;;;10445478;28;20218;-70
2021/03/17 02:59:32;;;;;;;3.10;2.80;;;5.80;41.50;;;;;;10438704;28;20232;-70
2021/03/17 03:04:37;;;;;;;3.60;3.30;;;5.80;41.40;;;;;;10442869;28;20248;-70
2021/03/17 03:09:40;;;;;;;19.20;3.40;;;5.80;41.90;;;;;;10440551;28;20224;-70
2021/03/17 03:14:43;;;;;;;22.17;4.03;;;5.80;41.50;;;;;;10440486;28;20655;-71
2021/03/17 03:19:50;;;;;;;19.13;4.23;;;5.70;41.40;;;;;;10438862;28;20240;-71
2021/03/17 03:24:54;;;;;;;5.27;4.80;;;5.70;42.00;;;;;;10441299;28;20227;-70
2021/03/17 03:29:57;;;;;;;4.60;4.10;;;5.60;41.70;;;;;;10440344;28;20235;-70
2021/03/17 03:35:00;;;;;;;6.13;4.13;;;5.70;41.70;;;;;;10438677;28;20227;-70
2021/03/17 03:40:06;;;;;;;4.20;3.80;;;5.70;41.80;;;;;;10437978;28;20307;-71
2021/03/17 03:45:11;;;;;;;4.07;3.77;;;5.70;41.80;;;;;;10439991;28;20233;-71
2021/03/17 03:50:17;;;;;;;3.70;3.40;;;5.70;42.10;;;;;;10436786;28;20588;-71
2021/03/17 03:55:25;;;;;;;4.17;3.87;;;5.70;42.00;;;;;;10439769;28;20225;-71
2021/03/17 04:00:29;;;;;;;3.33;3.13;;;5.70;42.20;;;;;;10433503;28;20233;-71
2021/03/17 04:05:36;;;;;;;4.50;4.10;;;5.70;42.00;;;;;;10440889;28;20755;-71
2021/03/17 04:10:39;;;;;;;4.47;4.07;;;5.70;42.40;;;;;;10439277;28;20338;-70
2021/03/17 04:15:41;;;;;;;5.00;4.60;;;5.80;42.20;;;;;;10440553;28;20316;-70
2021/03/17 04:20:48;;;;;;;5.33;4.87;;;6.00;42.00;;;;;;10432000;28;20599;-70
2021/03/17 04:25:53;;;;;;;4.97;4.57;;;5.90;42.30;;;;;;10439957;28;20771;-70
2021/03/17 04:30:59;;;;;;;5.33;4.93;;;5.90;41.90;;;;;;10437433;28;20237;-70
2021/03/17 04:36:04;;;;;;;5.23;4.83;;;5.90;42.10;;;;;;10438626;28;20233;-70
2021/03/17 04:41:07;;;;;;;5.00;4.50;;;5.90;41.90;;;;;;10437283;28;20231;-70
2021/03/17 04:46:10;;;;;;;5.70;5.20;;;5.90;41.90;;;;;;10440703;28;20231;-70
2021/03/17 04:51:16;;;;;;;5.03;4.63;;;6.00;41.90;;;;;;10440359;28;20225;-70
2021/03/17 04:56:20;;;;;;;6.13;5.63;;;6.00;42.00;;;;;;10447092;28;20227;-70
2021/03/17 05:01:24;;;;;;;6.57;5.97;;;6.10;41.80;;;;;;10444932;28;20229;-70
2021/03/17 05:06:30;;;;;;;6.77;5.97;;;6.10;41.90;;;;;;10442093;28;20240;-70
2021/03/17 05:11:33;;;;;;;8.10;7.40;;;6.10;42.00;;;;;;10446855;28;20584;-70
2021/03/17 05:16:36;;;;;;;7.43;6.73;;;6.10;41.80;;;;;;10446469;28;20229;-70
2021/03/17 05:21:41;;;;;;;17.43;14.07;;;6.20;41.90;;;;;;10442304;28;20319;-70
2021/03/17 05:26:43;;;;;;;12.67;8.67;;;6.10;41.80;;;;;;10446661;28;20225;-71
2021/03/17 05:31:47;;;;;;;13.23;10.80;;;6.10;41.60;;;;;;10448201;28;20700;-71
2021/03/17 05:36:50;;;;;;;10.63;9.57;;;6.00;42.40;;;;;;10446261;28;20232;-70
2021/03/17 05:41:53;;;;;;;13.60;11.93;;;5.90;41.70;;;;;;10446455;28;20240;-70
2021/03/17 05:46:57;;;;;;;12.13;8.97;;;5.90;42.00;;;;;;10444096;28;20759;-70
2021/03/17 05:52:01;;;;;;;10.33;9.30;;;5.90;41.90;;;;;;10444458;28;20225;-70
2021/03/17 05:57:04;;;;;;;8.10;7.30;;;5.90;42.20;;;;;;10440756;28;20225;-70
2021/03/17 06:02:08;;;;;;;8.37;7.57;;;5.90;42.10;;;;;;10443411;28;20339;-70
2021/03/17 06:07:18;;;;;;;8.57;7.77;;;5.90;42.20;;;;;;10440766;28;20704;-71
2021/03/17 06:12:22;;;;;;;9.20;8.30;;;6.00;42.70;;;;;;10446284;28;20228;-71
2021/03/17 06:17:27;;;;;;;10.13;9.13;;;6.00;42.50;;;;;;10470128;22;20308;-75
2021/03/17 06:22:30;;;;;;;11.93;10.20;;;6.10;42.50;;;;;;10472709;28;20282;-75
2021/03/17 06:27:34;;;;;;;9.10;8.30;;;6.20;43.10;;;;;;10485984;28;20228;-75
2021/03/17 06:32:37;;;;;;;10.40;9.43;;;6.20;42.30;;;;;;10499001;28;20219;-75
2021/03/17 06:37:40;;;;;;;10.37;9.40;;;6.20;42.20;;;;;;10511810;28;20220;-75
2021/03/17 06:42:42;;;;;;;10.83;9.07;;;6.30;42.30;;;;;;10494579;28;20229;-74
2021/03/17 06:47:45;;;;;;;9.23;8.33;;;6.30;42.30;;;;;;10486623;28;20893;-75
2021/03/17 06:52:50;;;;;;;8.40;7.60;;;6.30;42.10;;;;;;10494657;28;20223;-75
2021/03/17 06:57:54;;;;;;;8.83;8.03;;;6.40;42.30;;;;;;10503300;28;20320;-74
2021/03/17 07:02:58;;;;;;;9.13;8.23;;;6.40;42.30;;;;;;10499651;28;20239;-74
2021/03/17 07:08:02;;;;;;;8.23;7.47;;;6.40;43.00;;;;;;10489287;28;20697;-74
2021/03/17 07:13:06;;;;;;;10.40;9.40;;;6.50;42.80;;;;;;10497362;28;20320;-74
2021/03/17 07:18:19;;;;;;;12.83;11.53;;;6.50;42.70;;;;;;10492711;28;20675;-74
2021/03/17 07:23:36;;;;;;;14.27;12.87;;;6.60;43.20;;;;;;10491664;28;20734;-74
2021/03/17 07:29:12;;;;;;;11.67;10.57;;;6.60;42.70;;;;;;10505489;28;20701;-74
2021/03/17 07:34:17;;;;;;;11.43;10.33;;;6.70;42.90;;;;;;10494419;28;20245;-73
2021/03/17 07:39:24;;;;;;;11.10;9.93;;;6.70;42.50;;;;;;10498714;28;20232;-74
2021/03/17 07:44:28;;;;;;;10.50;9.50;;;6.70;42.50;;;;;;10494054;28;20730;-74
2021/03/17 07:49:31;;;;;;;10.43;9.37;;;6.70;42.40;;;;;;10493912;28;20308;-74
2021/03/17 07:54:35;;;;;;;9.70;8.70;;;6.80;42.40;;;;;;10490132;28;20224;-75
2021/03/17 07:59:37;;;;;;;12.60;10.07;;;6.80;42.60;;;;;;10498811;28;20708;-76
2021/03/17 08:04:40;;;;;;;11.37;9.33;;;6.80;42.30;;;;;;10494911;28;20271;-75
2021/03/17 08:09:44;;;;;;;10.10;9.10;;;6.90;42.30;;;;;;10500483;28;20228;-76
2021/03/17 08:14:47;;;;;;;11.20;9.97;;;6.90;42.40;;;;;;10488592;28;20282;-75
2021/03/17 08:20:12;;;;;;;12.53;10.67;;;7.00;42.20;;;;;;10482705;28;20691;-75
2021/03/17 08:25:35;;;;;;;11.40;10.30;;;6.90;42.50;;;;;;10473121;28;20550;-76
2021/03/17 08:30:37;;;;;;;12.00;9.67;;;6.90;42.70;;;;;;10494950;28;20727;-76
2021/03/17 08:36:08;;;;;;;10.70;9.60;;;6.90;41.80;;;;;;10468775;28;20224;-75
2021/03/17 08:41:17;;;;;;;10.93;9.80;;;6.80;42.60;;;;;;10467282;28;20705;-75
2021/03/17 08:46:21;;;;;;;11.17;9.80;;;6.80;42.00;;;;;;10474767;28;20571;-75
2021/03/17 08:52:05;;;;;;;8.07;7.27;;;6.70;42.00;;;;;;10491040;28;20310;-75
2021/03/17 08:57:10;;;;;;;7.70;7.00;;;6.70;42.50;;;;;;10490592;28;20224;-75
2021/03/17 09:02:20;;;;;;;7.87;7.13;;;6.70;41.90;;;;;;10486294;28;20288;-75
2021/03/17 09:07:25;;;;;;;6.57;6.00;;;6.70;42.60;;;;;;10490540;28;20305;-75
2021/03/17 09:12:49;;;;;;;5.20;4.70;;;6.70;42.30;;;;;;10489261;28;20228;-75
2021/03/17 09:17:52;;;;;;;3.83;3.53;;;6.70;42.30;;;;;;10482678;28;20217;-75
2021/03/17 09:23:22;;;;;;;5.07;4.57;;;6.70;42.00;;;;;;10487186;28;20224;-75
2021/03/17 09:28:28;;;;;;;4.73;4.33;;;6.70;42.40;;;;;;10452800;28;20244;-75
2021/03/17 09:33:32;;;;;;;5.10;4.70;;;6.70;42.00;;;;;;10487143;28;20228;-75
2021/03/17 09:38:36;;;;;;;4.57;4.17;;;6.70;41.80;;;;;;10491121;28;20656;-74
2021/03/17 09:43:45;;;;;;;4.77;3.77;;;6.70;41.90;;;;;;10507102;28;20247;-75
2021/03/17 09:48:49;;;;;;;4.30;3.90;;;6.60;42.00;;;;;;10503838;28;20220;-75
2021/03/17 09:54:13;;;;;;;4.03;3.70;;;6.60;41.90;;;;;;10455373;28;20309;-75
2021/03/17 09:59:23;;;;;;;4.00;3.70;;;6.60;42.00;;;;;;10455547;28;20232;-76
2021/03/17 10:04:29;;;;;;;3.87;3.57;;;6.60;42.00;;;;;;10486500;28;20236;-75
2021/03/17 10:09:37;;;;;;;4.57;3.07;;;6.60;41.90;;;;;;10497015;28;20231;-76
2021/03/17 10:14:46;;;;;;;5.13;4.73;;;6.60;42.30;;;;;;10500664;28;20277;-75
2021/03/17 10:19:50;;;;;;;4.93;3.93;;;6.60;42.60;;;;;;10484142;28;20715;-76
2021/03/17 10:24:55;;;;;;;3.90;3.60;;;6.70;42.40;;;;;;10474861;28;20228;-75
2021/03/17 10:30:03;;;;;;;5.03;3.93;;;6.70;42.50;;;;;;10486165;28;20307;-75
2021/03/17 10:35:09;;;;;;;4.20;3.90;;;6.80;42.70;;;;;;10470289;28;20221;-75
2021/03/17 10:40:14;;;;;;;5.07;3.87;;;6.80;42.40;;;;;;10475308;28;20735;-74
2021/03/17 10:45:20;;;;;;;4.50;4.10;;;6.80;42.70;;;;;;10476461;28;20263;-75
2021/03/17 10:50:31;;;;;;;5.07;4.67;;;6.80;43.00;;;;;;10484106;28;20235;-75
2021/03/17 10:55:34;;;;;;;5.00;4.50;;;6.80;43.60;;;;;;10505947;28;20306;-75
2021/03/17 11:00:38;;;;;;;5.00;4.60;;;6.80;42.80;;;;;;10473436;28;20727;-76
2021/03/17 11:05:40;;;;;;;5.90;5.33;;;6.80;43.20;;;;;;10493497;28;20232;-75
2021/03/17 11:11:02;;;;;;;6.90;6.30;;;6.80;43.10;;;;;;10479585;28;20232;-75
2021/03/17 11:16:21;;;;;;;7.03;6.43;;;6.80;43.10;;;;;;10481778;28;20692;-75
2021/03/17 11:21:26;;;;;;;6.53;5.83;;;6.80;43.20;;;;;;10472584;28;20232;-74
2021/03/17 11:26:31;;;;;;;6.97;6.27;;;6.80;43.10;;;;;;10483504;28;20696;-75
2021/03/17 11:31:35;;;;;;;7.00;6.03;;;6.80;43.10;;;;;;10481205;28;20231;-74
2021/03/17 11:36:38;;;;;;;6.13;5.63;;;6.90;43.50;;;;;;10464744;28;20642;-73
2021/03/17 11:41:43;;;;;;;7.70;5.67;;;7.00;43.20;;;;;;10471354;28;20248;-76
2021/03/17 11:46:47;;;;;;;7.97;6.60;;;7.00;44.10;;;;;;10474431;28;20311;-74
2021/03/17 11:51:50;;;;;;;7.00;5.93;;;7.10;43.10;;;;;;10485371;28;20228;-74
2021/03/17 11:56:53;;;;;;;9.00;6.57;;;7.10;43.00;;;;;;10471419;28;20617;-73
2021/03/17 12:01:56;;;;;;;7.00;6.10;;;7.20;43.00;;;;;;10481573;28;20643;-74
2021/03/17 12:07:00;;;;;;;7.10;6.40;;;7.30;42.70;;;;;;10472689;28;20296;-73
2021/03/17 12:12:03;;;;;;;6.63;6.03;;;7.20;42.40;;;;;;10477045;28;20224;-74
2021/03/17 12:17:06;;;;;;;6.40;5.80;;;7.30;42.50;;;;;;10494254;22;20320;-71
2021/03/17 12:22:08;;;;;;;7.03;6.03;;;7.30;42.60;;;;;;10468097;28;20228;-73
2021/03/17 12:27:11;;;;;;;7.90;6.07;;;7.40;42.50;;;;;;10446655;28;20746;-72
2021/03/17 12:32:14;;;;;;;6.93;4.73;;;7.50;42.40;;;;;;10431136;28;20231;-72
2021/03/17 12:37:16;;;;;;;5.33;4.37;;;7.60;42.40;;;;;;10430018;28;20319;-72
2021/03/17 12:42:18;;;;;;;5.90;4.23;;;7.70;42.10;;;;;;10437631;28;20229;-72
2021/03/17 12:47:22;;;;;;;4.97;3.80;;;7.80;41.90;;;;;;10433979;28;20314;-72
2021/03/17 12:52:24;;;;;;;4.50;3.50;;;7.90;41.40;;;;;;10435444;28;20592;-71
2021/03/17 12:57:26;;;;;;;4.50;3.53;;;8.00;41.40;;;;;;10425238;28;20324;-71
2021/03/17 13:02:29;;;;;;;3.77;3.03;;;8.10;41.10;;;;;;10423802;28;20307;-70
2021/03/17 13:07:32;;;;;;;3.70;3.07;;;8.20;40.20;;;;;;10433795;28;20818;-71
2021/03/17 13:12:34;;;;;;;5.80;3.50;;;8.20;39.70;;;;;;10436117;28;20296;-70
2021/03/17 13:17:38;;;;;;;5.67;3.50;;;8.20;39.40;;;;;;10447688;28;20224;-77
2021/03/17 13:22:41;;;;;;;4.60;3.33;;;8.20;39.10;;;;;;10430099;28;20232;-73
2021/03/17 13:27:45;;;;;;;3.10;2.80;;;8.20;39.40;;;;;;10451929;28;20229;-74
2021/03/17 13:32:48;;;;;;;4.10;2.50;;;8.20;39.40;;;;;;10432259;28;20244;-76
2021/03/17 13:37:50;;;;;;;4.10;3.70;;;8.10;39.30;;;;;;10448801;28;20574;-77
2021/03/17 13:42:52;;;;;;;2.20;2.00;;;8.00;39.30;;;;;;10449417;28;20224;-76
2021/03/17 13:47:55;;;;;;;2.50;1.90;;;7.90;38.30;;;;;;10448915;28;20237;-75
2021/03/17 13:52:58;;;;;;;2.97;1.60;;;7.80;37.80;;;;;;10456294;28;20236;-76
2021/03/17 13:58:00;;;;;;;3.20;1.70;;;7.70;39.00;;;;;;10439220;28;20221;-75
2021/03/17 14:03:04;;;;;;;2.60;1.47;;;7.70;38.50;;;;;;10414246;28;20241;-76
2021/03/17 14:08:07;;;;;;;1.53;1.27;;;7.70;38.30;;;;;;10433730;28;20320;-76
2021/03/17 14:13:10;;;;;;;1.57;1.47;;;7.70;38.90;;;;;;10445177;28;20779;-78
2021/03/17 14:18:14;;;;;;;1.70;1.57;;;7.70;38.30;;;;;;10437791;28;20262;-78
2021/03/17 14:23:16;;;;;;;1.73;1.57;;;7.70;38.00;;;;;;10434913;28;20693;-76
2021/03/17 14:28:18;;;;;;;3.10;1.93;;;7.70;38.30;;;;;;10448481;28;20233;-76
2021/03/17 14:33:21;;;;;;;2.03;1.50;;;7.70;37.50;;;;;;10454547;28;20235;-76
2021/03/17 14:38:23;;;;;;;2.13;1.40;;;7.80;37.60;;;;;;10454434;28;20229;-76
2021/03/17 14:43:26;;;;;;;1.90;1.30;;;7.80;36.60;;;;;;10454292;28;20678;-76
2021/03/17 14:48:29;;;;;;;1.77;1.60;;;7.70;36.70;;;;;;10453921;28;20643;-76
2021/03/17 14:53:31;;;;;;;1.53;1.30;;;7.70;37.10;;;;;;10440726;28;20248;-76
2021/03/17 14:58:33;;;;;;;2.67;1.60;;;7.70;37.70;;;;;;10413888;28;20260;-74
2021/03/17 15:03:36;;;;;;;2.37;1.43;;;7.70;37.10;;;;;;10449169;28;20221;-74
2021/03/17 15:08:38;;;;;;;1.67;1.10;;;7.70;37.30;;;;;;10453326;28;20225;-74
2021/03/17 15:13:41;;;;;;;2.33;1.10;;;7.70;37.30;;;;;;10436155;28;20315;-75
2021/03/17 15:18:44;;;;;;;1.87;1.10;;;7.60;37.60;;;;;;10446039;28;20316;-75
2021/03/17 15:23:46;;;;;;;1.63;1.50;;;7.70;38.00;;;;;;10450140;28;20225;-76
2021/03/17 15:28:48;;;;;;;2.03;1.30;;;7.70;37.30;;;;;;10452645;28;20216;-77
2021/03/17 15:33:52;;;;;;;1.80;1.70;;;7.70;37.60;;;;;;10452087;28;20225;-76
2021/03/17 15:38:55;;;;;;;1.80;1.53;;;7.70;37.30;;;;;;10452109;28;20229;-75
2021/03/17 15:43:59;;;;;;;1.83;1.47;;;7.80;37.70;;;;;;10428893;28;20218;-74
2021/03/17 15:49:04;;;;;;;2.70;1.60;;;7.70;37.10;;;;;;10409840;28;20226;-74
2021/03/17 15:54:06;;;;;;;3.03;2.57;;;7.70;36.70;;;;;;10410311;28;20236;-74
2021/03/17 15:59:08;;;;;;;2.10;2.00;;;7.70;37.20;;;;;;10425967;28;20252;-74
2021/03/17 16:04:12;;;;;;;1.50;1.40;;;7.70;37.30;;;;;;10424552;28;20236;-74
2021/03/17 16:09:14;;;;;;;2.23;1.40;;;7.70;37.20;;;;;;10438159;28;20692;-75
2021/03/17 16:14:17;;;;;;;2.43;1.57;;;7.70;36.90;;;;;;10450723;28;20300;-74
2021/03/17 16:19:20;;;;;;;1.63;1.40;;;7.80;36.80;;;;;;10424470;28;20234;-75
2021/03/17 16:24:22;;;;;;;2.17;1.37;;;7.70;36.70;;;;;;10425667;28;20225;-74
2021/03/17 16:29:25;;;;;;;1.73;1.53;;;7.70;36.90;;;;;;10449260;28;20707;-75
2021/03/17 16:34:29;;;;;;;2.17;1.43;;;7.70;36.70;;;;;;10436670;28;20245;-75
2021/03/17 16:39:31;;;;;;;1.83;1.43;;;7.70;36.90;;;;;;10449729;28;20229;-72
2021/03/17 16:44:34;;;;;;;3.40;1.27;;;7.70;37.20;;;;;;10429693;28;20767;-76
2021/03/17 16:49:38;;;;;;;2.17;1.33;;;7.70;37.00;;;;;;10458386;28;20228;-75
2021/03/17 16:54:40;;;;;;;2.40;1.50;;;7.70;36.50;;;;;;10458412;28;20659;-74
2021/03/17 16:59:43;;;;;;;1.70;1.40;;;7.60;36.80;;;;;;10457903;28;20236;-75
2021/03/17 17:04:46;;;;;;;1.50;1.40;;;7.50;36.60;;;;;;10457594;28;20246;-75
2021/03/17 17:09:49;;;;;;;2.57;1.30;;;7.60;36.60;;;;;;10457694;28;20255;-74
2021/03/17 17:14:51;;;;;;;4.33;3.80;;;7.50;36.90;;;;;;10457059;28;20315;-74
2021/03/17 17:19:54;;;;;;;3.57;3.27;;;7.50;37.20;;;;;;10456075;28;20235;-75
2021/03/17 17:24:56;;;;;;;3.43;2.50;;;7.60;37.50;;;;;;10455782;28;20308;-73
2021/03/17 17:29:59;;;;;;;3.77;1.63;;;7.60;37.70;;;;;;10424635;28;20237;-74
2021/03/17 17:35:03;;;;;;;5.40;1.50;;;7.70;38.50;;;;;;10455288;28;20667;-74
2021/03/17 17:40:23;;;;;;;1.67;1.30;;;7.70;40.30;;;;;;10447482;28;20763;-73
2021/03/17 17:45:26;;;;;;;3.40;3.17;;;7.90;39.20;;;;;;10435685;28;20237;-74
2021/03/17 17:50:30;;;;;;;3.90;3.50;;;8.00;38.80;;;;;;10443457;28;20256;-74
2021/03/17 17:55:33;;;;;;;7.03;4.87;;;8.00;38.20;;;;;;10454247;28;20728;-74
2021/03/17 18:00:36;;;;;;;5.20;4.70;;;8.00;38.60;;;;;;10454138;28;20594;-74
2021/03/17 18:05:39;;;;;;;8.53;6.37;;;7.90;37.70;;;;;;10455308;28;20248;-74
2021/03/17 18:10:42;;;;;;;7.70;5.43;;;7.80;37.70;;;;;;10451440;28;20304;-74
2021/03/17 18:15:44;;;;;;;5.17;3.57;;;7.70;37.70;;;;;;10452623;28;20240;-74
2021/03/17 18:20:48;;;;;;;4.60;3.60;;;7.60;37.90;;;;;;10447818;28;20909;-74
2021/03/17 18:25:50;;;;;;;7.17;3.20;;;7.60;37.90;;;;;;10438464;28;20655;-74
2021/03/17 18:30:52;;;;;;;4.17;2.90;;;7.50;37.90;;;;;;10432732;28;20242;-74
2021/03/17 18:36:00;;;;;;;7.10;5.80;;;7.50;37.80;;;;;;10442425;28;20236;-74
2021/03/17 18:41:02;;;;;;;8.67;5.77;;;7.40;37.90;;;;;;10433984;28;20235;-74
2021/03/17 18:46:04;;;;;;;7.83;6.70;;;7.30;37.90;;;;;;10446118;28;20233;-73
2021/03/17 18:51:08;;;;;;;8.37;6.23;;;7.30;38.10;;;;;;10430792;28;20603;-74
2021/03/17 18:56:10;;;;;;;12.57;9.93;;;7.20;38.10;;;;;;10427445;28;20776;-74
2021/03/17 19:01:12;;;;;;;7.90;6.83;;;7.10;37.80;;;;;;10419912;28;20221;-74
2021/03/17 19:06:16;;;;;;;11.60;6.47;;;7.00;37.90;;;;;;10429455;28;20829;-74
2021/03/17 19:11:18;;;;;;;11.80;6.17;;;6.90;38.10;;;;;;10424053;28;20220;-74
2021/03/17 19:16:20;;;;;;;8.00;6.67;;;6.70;38.10;;;;;;10433527;28;21077;-74
2021/03/17 19:21:24;;;;;;;6.60;5.90;;;6.70;38.10;;;;;;10443440;28;20229;-74
2021/03/17 19:26:26;;;;;;;8.13;7.33;;;6.70;38.20;;;;;;10424839;28;20605;-74
2021/03/17 19:31:30;;;;;;;9.17;6.57;;;6.60;38.10;;;;;;10425763;28;20218;-75
2021/03/17 19:36:33;;;;;;;7.70;5.13;;;6.60;38.10;;;;;;10424007;28;20335;-74
2021/03/17 19:41:37;;;;;;;8.37;5.40;;;6.50;38.00;;;;;;10414931;28;20236;-75
2021/03/17 19:46:40;;;;;;;9.33;8.37;;;6.40;38.30;;;;;;10427010;28;20263;-75
2021/03/17 19:51:43;;;;;;;8.97;7.03;;;6.40;38.70;;;;;;10418676;28;20233;-74
2021/03/17 19:56:45;;;;;;;6.97;6.30;;;6.50;39.00;;;;;;10422675;28;20248;-74
2021/03/17 20:01:49;;;;;;;6.10;5.50;;;6.50;39.00;;;;;;10423796;28;20233;-75
2021/03/17 20:06:52;;;;;;;6.73;5.77;;;6.50;38.90;;;;;;10423768;28;20597;-74
2021/03/17 20:11:54;;;;;;;6.23;5.20;;;6.60;39.00;;;;;;10426156;28;20235;-75
2021/03/17 20:16:57;;;;;;;5.43;3.73;;;6.60;38.90;;;;;;10426080;28;20412;-74
2021/03/17 20:22:00;;;;;;;2.80;2.60;;;6.70;39.00;;;;;;10422468;28;20222;-74
2021/03/17 20:27:03;;;;;;;2.97;2.60;;;6.70;38.90;;;;;;10430561;28;20236;-74
2021/03/17 20:32:06;;;;;;;3.10;2.23;;;6.70;39.00;;;;;;10419581;28;20799;-74
2021/03/17 20:37:10;;;;;;;3.30;2.93;;;6.70;39.00;;;;;;10432247;28;20225;-75
2021/03/17 20:42:12;;;;;;;2.80;2.50;;;6.60;38.80;;;;;;10430998;28;20312;-75
2021/03/17 20:47:14;;;;;;;2.97;2.60;;;6.60;38.70;;;;;;10432999;28;20237;-75
2021/03/17 20:52:18;;;;;;;2.47;2.27;;;6.60;38.80;;;;;;10425477;28;20230;-75
2021/03/17 20:57:20;;;;;;;3.70;2.27;;;6.60;38.90;;;;;;10436309;28;20251;-75
2021/03/17 21:02:23;;;;;;;2.17;1.97;;;6.60;39.00;;;;;;10433452;28;20229;-75
2021/03/17 21:07:26;;;;;;;2.60;2.40;;;6.60;39.10;;;;;;10442343;28;20238;-75
2021/03/17 21:12:48;;;;;;;2.30;2.10;;;6.60;39.10;;;;;;10442043;28;20224;-75
2021/03/17 21:17:51;;;;;;;2.60;2.40;;;6.60;39.00;;;;;;10435725;28;20245;-75
2021/03/17 21:22:54;;;;;;;4.30;2.23;;;6.60;38.90;;;;;;10432743;28;20229;-75
2021/03/17 21:27:57;;;;;;;2.20;2.00;;;6.60;38.90;;;;;;10436366;28;20233;-75
2021/03/17 21:32:59;;;;;;;3.03;1.90;;;6.60;38.90;;;;;;10445584;28;20606;-75
2021/03/17 21:38:04;;;;;;;2.40;2.20;;;6.60;38.90;;;;;;10442498;28;20231;-75
2021/03/17 21:43:07;;;;;;;2.30;2.10;;;6.60;38.80;;;;;;10444846;28;20752;-75
2021/03/17 21:48:12;;;;;;;2.27;2.07;;;6.60;38.70;;;;;;10437073;28;20240;-75
2021/03/17 21:53:16;;;;;;;2.97;2.00;;;6.60;38.70;;;;;;10434395;28;20237;-75
2021/03/17 21:58:20;;;;;;;2.57;2.00;;;6.60;38.80;;;;;;10438080;28;20291;-75
2021/03/17 22:03:23;;;;;;;2.37;2.13;;;6.60;38.70;;;;;;10443755;28;20232;-75
2021/03/17 22:08:26;;;;;;;3.27;2.30;;;6.60;38.70;;;;;;10437863;28;20307;-74
2021/03/17 22:13:28;;;;;;;2.80;2.60;;;6.60;38.80;;;;;;10437119;28;20225;-75
2021/03/17 22:18:33;;;;;;;2.23;2.03;;;6.60;38.70;;;;;;10431761;28;20702;-74
2021/03/17 22:23:37;;;;;;;2.70;2.50;;;6.60;38.60;;;;;;10437950;28;20968;-74
2021/03/17 22:28:39;;;;;;;2.70;2.30;;;6.50;38.30;;;;;;10442312;28;20225;-75
2021/03/17 22:33:42;;;;;;;3.37;2.43;;;6.50;38.10;;;;;;10422409;28;20236;-75
2021/03/17 22:38:45;;;;;;;2.90;2.27;;;6.50;38.30;;;;;;10443243;28;20831;-75
2021/03/17 22:43:47;;;;;;;4.00;2.80;;;6.50;38.30;;;;;;10425277;28;20232;-74
2021/03/17 22:48:49;;;;;;;3.23;2.93;;;6.50;38.40;;;;;;10427144;28;20229;-74
2021/03/17 22:53:52;;;;;;;4.70;3.30;;;6.40;37.90;;;;;;10438033;28;20237;-74
2021/03/17 22:58:55;;;;;;;3.40;3.07;;;6.40;37.90;;;;;;10429909;28;20253;-74
2021/03/17 23:03:57;;;;;;;3.80;3.40;;;6.30;37.90;;;;;;10437518;28;20230;-74
2021/03/17 23:09:07;;;;;;;4.43;3.80;;;6.20;37.80;;;;;;10434447;28;20226;-73
2021/03/17 23:14:12;;;;;;;3.50;3.20;;;6.20;37.80;;;;;;10433995;28;20976;-74
2021/03/17 23:19:18;;;;;;;3.83;3.50;;;6.10;37.70;;;;;;10438238;28;20270;-74
2021/03/17 23:24:26;;;;;;;3.70;3.30;;;6.10;37.70;;;;;;10432087;28;20265;-74
2021/03/17 23:29:30;;;;;;;3.77;3.30;;;6.00;37.60;;;;;;10440455;28;20304;-74
2021/03/17 23:34:37;;;;;;;3.83;3.40;;;5.90;37.60;;;;;;10429434;28;20307;-74
2021/03/17 23:39:42;;;;;;;4.33;3.87;;;5.90;37.70;;;;;;10438038;28;20223;-73
2021/03/17 23:44:44;;;;;;;3.43;3.13;;;5.90;37.50;;;;;;10435577;28;20220;-73
2021/03/17 23:49:46;;;;;;;3.33;3.03;;;5.80;37.80;;;;;;10435498;28;20225;-74
2021/03/17 23:54:49;;;;;;;5.13;3.50;;;5.70;38.20;;;;;;10436788;28;20785;-73
2021/03/17 23:59:51;;;;;;;3.77;3.17;;;5.70;38.20;;;;;;10443818;28;20598;-74
